Time;durP1;ratioP1;P1;durP2;ratioP2;P2;SDS_P1;SDS_P2;PMS_P1;PMS_P2;Temp;Humidity;BMP_temperature;BMP_pressure;BME280_temperature;BME280_humidity;BME280_pressure;Samples;Min_cycle;Max_cycle;Signal;HPM_P1;HPM_P2
2020/12/01 09:46:36;;;;;;;13.63;7.13;;;3.80;99.50;;;;;;6219860;22;20027;-85
2020/12/01 09:49:07;;;;;;;12.55;6.72;;;3.80;99.50;;;;;;6202959;23;20087;-87
2020/12/01 09:51:34;;;;;;;14.18;7.32;;;3.90;99.50;;;;;;6223441;23;20517;-86
2020/12/01 09:54:14;;;;;;;12.43;7.00;;;4.00;99.30;;;;;;6197380;23;20109;-86
2020/12/01 09:56:48;;;;;;;11.80;6.93;;;3.90;99.20;;;;;;6232675;23;20020;-86
2020/12/01 09:59:31;;;;;;;11.40;6.50;;;4.00;99.30;;;;;;6231288;23;20096;-86
2020/12/01 10:08:05;;;;;;;10.70;5.95;;;4.00;99.20;;;;;;6076240;23;20049;-85
2020/12/01 11:30:29;;;;;;;8.00;4.30;;;3.80;99.90;;;;;;6217800;22;20275;-86
2020/12/01 11:32:56;;;;;;;8.07;4.65;;;3.90;99.90;;;;;;6244091;22;20450;-87
2020/12/01 11:35:24;;;;;;;7.22;4.30;;;3.80;99.90;;;;;;6257860;23;20473;-85
2020/12/01 11:37:52;;;;;;;7.97;4.63;;;3.80;99.90;;;;;;6260338;23;20082;-87
2020/12/01 11:40:20;;;;;;;7.10;4.10;;;3.90;99.90;;;;;;6261568;23;20024;-85
2020/12/01 11:42:46;;;;;;;7.57;4.50;;;3.90;99.90;;;;;;6266505;23;20020;-85
2020/12/01 11:45:13;;;;;;;8.55;4.78;;;3.90;99.90;;;;;;6235538;23;20016;-85
2020/12/01 11:47:42;;;;;;;8.25;4.78;;;4.00;99.90;;;;;;6256446;23;20351;-84
2020/12/01 11:50:09;;;;;;;8.93;4.80;;;3.90;99.90;;;;;;6253126;23;20054;-86
2020/12/01 11:52:36;;;;;;;7.80;4.32;;;4.00;99.90;;;;;;6228407;23;20020;-85
2020/12/01 11:55:04;;;;;;;6.32;3.92;;;4.10;99.70;;;;;;6230768;23;20024;-84
2020/12/01 11:57:30;;;;;;;7.53;4.20;;;4.10;99.50;;;;;;6242337;23;20031;-83
2020/12/01 11:59:57;;;;;;;7.22;4.13;;;4.00;99.60;;;;;;6232897;23;20024;-84
2020/12/01 12:02:24;;;;;;;8.90;4.47;;;4.00;99.70;;;;;;6255747;23;20024;-84
2020/12/01 12:04:51;;;;;;;9.00;4.20;;;4.10;99.70;;;;;;6257086;23;20028;-86
2020/12/01 12:07:18;;;;;;;7.72;4.88;;;4.00;99.60;;;;;;6239044;22;20011;-82
2020/12/01 12:09:44;;;;;;;8.15;4.38;;;3.90;99.70;;;;;;6267521;22;20031;-85
2020/12/01 12:12:11;;;;;;;7.15;3.88;;;3.80;99.90;;;;;;6259301;23;20481;-84
2020/12/01 12:14:38;;;;;;;6.63;3.65;;;3.90;99.90;;;;;;6254178;23;20020;-85
2020/12/01 12:17:05;;;;;;;7.10;4.05;;;3.90;99.90;;;;;;6253028;23;20051;-84
2020/12/01 12:19:32;;;;;;;8.07;4.80;;;3.90;99.90;;;;;;6230464;23;20024;-84
2020/12/01 12:22:00;;;;;;;7.55;3.80;;;3.90;99.90;;;;;;6267524;23;20024;-82
2020/12/01 12:24:27;;;;;;;8.68;4.50;;;3.80;99.90;;;;;;6261446;23;20027;-84
2020/12/01 12:26:53;;;;;;;5.70;3.55;;;3.90;99.90;;;;;;6259341;23;20046;-83
2020/12/01 12:33:01;;;;;;;7.57;3.85;;;3.80;99.90;;;;;;6265873;23;20088;-84
2020/12/01 12:35:28;;;;;;;7.30;3.90;;;4.00;99.90;;;;;;6229217;23;20027;-82
2020/12/01 12:37:56;;;;;;;7.47;3.78;;;3.90;99.90;;;;;;6230135;23;20095;-83
2020/12/01 12:40:23;;;;;;;6.47;3.63;;;3.90;99.90;;;;;;6228172;23;20024;-84
2020/12/01 12:42:49;;;;;;;5.80;3.53;;;4.00;99.90;;;;;;6251016;23;20020;-85
2020/12/01 12:45:17;;;;;;;6.82;4.20;;;4.10;99.90;;;;;;6250555;23;20422;-86
2020/12/01 12:47:43;;;;;;;6.13;3.30;;;4.10;99.90;;;;;;6198733;23;20561;-86
2020/12/01 12:50:11;;;;;;;5.88;3.38;;;4.00;99.90;;;;;;6204381;23;20023;-84
2020/12/01 12:52:38;;;;;;;7.80;3.78;;;4.10;99.90;;;;;;6231913;23;20027;-86
2020/12/01 12:55:06;;;;;;;16.58;8.77;;;4.00;99.80;;;;;;6221914;23;20024;-85
2020/12/01 12:57:33;;;;;;;10.48;5.50;;;4.00;99.90;;;;;;6222874;23;20074;-86
2020/12/01 13:00:00;;;;;;;12.65;5.97;;;4.10;99.90;;;;;;6249777;23;20028;-88
2020/12/01 13:02:26;;;;;;;5.82;3.70;;;4.10;99.50;;;;;;6248036;23;20055;-87
2020/12/01 13:04:53;;;;;;;7.05;3.80;;;4.20;99.50;;;;;;6248199;23;20367;-88
2020/12/01 13:07:20;;;;;;;6.18;3.60;;;4.20;99.40;;;;;;6222387;23;20020;-88
2020/12/01 13:09:46;;;;;;;7.30;4.00;;;4.20;99.40;;;;;;6249826;23;20016;-85
2020/12/01 13:12:14;;;;;;;6.72;4.15;;;4.20;99.30;;;;;;6249628;23;20035;-88
2020/12/01 13:14:41;;;;;;;5.72;3.72;;;4.20;99.20;;;;;;6248677;23;20031;-86
2020/12/01 13:17:07;;;;;;;6.22;3.72;;;4.20;99.20;;;;;;6223773;23;20055;-86
2020/12/01 13:19:34;;;;;;;6.22;3.65;;;4.30;99.50;;;;;;6223443;23;20052;-84
2020/12/01 13:22:04;;;;;;;7.10;3.80;;;4.20;99.40;;;;;;6223820;23;20066;-86
2020/12/01 13:24:31;;;;;;;7.28;4.25;;;4.20;99.40;;;;;;6222571;23;20020;-89
2020/12/01 13:27:04;;;;;;;7.88;4.00;;;4.20;99.40;;;;;;6248707;23;20016;-88
2020/12/01 13:29:32;;;;;;;7.85;4.22;;;4.30;99.40;;;;;;6247882;23;20032;-89
2020/12/01 13:31:59;;;;;;;7.28;4.15;;;4.50;99.40;;;;;;6248473;23;20024;-88
2020/12/01 13:34:27;;;;;;;6.70;3.95;;;4.40;99.30;;;;;;6198031;23;20020;-88
2020/12/01 13:36:54;;;;;;;7.05;4.65;;;4.50;99.30;;;;;;6251641;23;20020;-88
2020/12/01 13:39:21;;;;;;;6.72;4.20;;;4.50;98.90;;;;;;6252161;23;20043;-88
2020/12/01 13:41:49;;;;;;;7.32;3.60;;;4.60;98.70;;;;;;6250164;23;20046;-88
2020/12/01 13:44:17;;;;;;;7.70;4.03;;;4.50;98.50;;;;;;6248942;22;20102;-87
2020/12/01 13:46:45;;;;;;;8.32;4.07;;;4.50;98.90;;;;;;6223328;23;20020;-88
2020/12/01 13:49:13;;;;;;;7.85;4.20;;;4.50;98.90;;;;;;6225140;23;20043;-87
2020/12/01 13:51:40;;;;;;;7.82;3.97;;;4.60;98.60;;;;;;6254825;23;20374;-88
2020/12/01 13:54:07;;;;;;;7.60;4.32;;;4.60;98.70;;;;;;6232527;23;20028;-88
2020/12/01 13:56:35;;;;;;;7.47;4.20;;;4.60;98.80;;;;;;6247430;23;20528;-88
2020/12/01 13:59:02;;;;;;;7.57;4.30;;;4.60;98.60;;;;;;6247410;23;20019;-88
2020/12/01 14:01:30;;;;;;;7.00;4.10;;;4.70;98.70;;;;;;6246461;23;20016;-88
2020/12/01 14:03:58;;;;;;;6.72;4.35;;;4.60;98.60;;;;;;6248751;23;20075;-88
2020/12/01 14:06:27;;;;;;;7.22;4.45;;;4.60;98.80;;;;;;6223311;23;20027;-88
2020/12/01 14:08:54;;;;;;;8.50;5.05;;;4.60;98.80;;;;;;6249839;23;20024;-87
2020/12/01 14:11:21;;;;;;;6.60;4.03;;;4.60;99.00;;;;;;6247252;23;20020;-87
2020/12/01 14:13:48;;;;;;;8.18;4.68;;;4.70;99.10;;;;;;6247635;23;20031;-88
2020/12/01 14:16:15;;;;;;;7.82;4.70;;;4.70;98.90;;;;;;6247927;23;20045;-88
2020/12/01 14:18:42;;;;;;;7.07;4.07;;;4.70;98.70;;;;;;6247936;23;20016;-88
2020/12/01 14:21:10;;;;;;;8.52;5.10;;;4.70;98.50;;;;;;6247762;23;20020;-88
2020/12/01 14:23:37;;;;;;;8.23;4.47;;;4.70;98.70;;;;;;6246957;23;20078;-88
2020/12/01 14:26:04;;;;;;;8.93;5.20;;;4.80;99.00;;;;;;6221136;23;20041;-88
2020/12/01 14:28:31;;;;;;;8.73;4.95;;;4.90;99.00;;;;;;6246279;23;20040;-89
2020/12/01 14:30:58;;;;;;;7.47;4.57;;;4.90;98.70;;;;;;6246641;23;20040;-88
2020/12/01 14:33:25;;;;;;;6.78;4.47;;;4.90;98.40;;;;;;6247024;23;20372;-89
2020/12/01 14:35:52;;;;;;;7.15;4.60;;;5.00;98.50;;;;;;6247722;23;20036;-93
2020/12/01 14:38:20;;;;;;;7.28;4.38;;;4.90;98.50;;;;;;6246679;23;20042;-92
2020/12/01 14:40:47;;;;;;;7.68;4.60;;;5.00;98.50;;;;;;6246951;23;20016;-92
2020/12/01 14:43:17;;;;;;;11.35;6.75;;;5.00;98.60;;;;;;6247392;23;20024;-92
2020/12/01 14:45:44;;;;;;;10.77;6.55;;;5.00;98.50;;;;;;6247941;23;20032;-92
2020/12/01 14:48:43;;;;;;;8.25;4.75;;;5.00;98.50;;;;;;6247752;23;20097;-92
2020/12/01 14:51:59;;;;;;;7.57;4.50;;;5.00;98.50;;;;;;6201708;23;20076;-91
2020/12/01 14:54:27;;;;;;;8.98;4.78;;;5.00;98.50;;;;;;6124390;23;20401;-91
2020/12/01 14:57:21;;;;;;;8.95;4.80;;;5.10;98.40;;;;;;6123092;23;20059;-91
2020/12/01 15:00:23;;;;;;;9.10;4.63;;;5.10;98.50;;;;;;6211406;23;20409;-92
2020/12/01 15:03:45;;;;;;;8.70;5.18;;;5.00;98.40;;;;;;6231759;23;20446;-92
2020/12/01 15:06:33;;;;;;;8.13;5.00;;;5.00;98.50;;;;;;6248552;23;20023;-91
2020/12/01 15:09:34;;;;;;;10.10;5.18;;;5.00;98.40;;;;;;6248412;22;20031;-92
2020/12/01 15:13:03;;;;;;;8.45;5.07;;;5.00;98.50;;;;;;6248401;23;20027;-92
2020/12/01 15:15:36;;;;;;;8.75;5.47;;;5.00;98.60;;;;;;6257486;23;20043;-91
2020/12/01 15:18:07;;;;;;;9.65;5.85;;;5.10;98.70;;;;;;6256173;23;20393;-90
2020/12/01 15:20:34;;;;;;;7.32;5.43;;;5.00;98.70;;;;;;6252800;23;20035;-89
2020/12/01 15:23:33;;;;;;;10.38;5.90;;;5.00;98.70;;;;;;6252280;23;20047;-89
2020/12/01 15:26:03;;;;;;;9.32;6.28;;;4.90;98.70;;;;;;6248094;23;20331;-88
2020/12/01 15:28:33;;;;;;;9.77;6.18;;;5.00;98.70;;;;;;6250521;23;20102;-89
2020/12/01 15:31:01;;;;;;;10.57;6.40;;;4.90;98.70;;;;;;6250096;23;20024;-89
2020/12/01 15:33:31;;;;;;;9.63;6.10;;;4.90;98.70;;;;;;6252441;23;20020;-91
2020/12/01 15:36:00;;;;;;;9.45;5.85;;;5.00;98.80;;;;;;6224637;23;20385;-92
2020/12/01 15:38:35;;;;;;;8.38;5.72;;;5.00;98.80;;;;;;6250324;23;20100;-89
2020/12/01 15:41:06;;;;;;;7.55;4.95;;;5.10;98.80;;;;;;6248144;23;20047;-89
2020/12/01 15:43:36;;;;;;;6.63;4.28;;;5.10;98.40;;;;;;6249808;23;20020;-90
2020/12/01 15:46:11;;;;;;;7.68;4.53;;;5.00;98.20;;;;;;6249170;23;20020;-90
2020/12/01 15:48:37;;;;;;;;;;;5.10;98.20;;;;;;6249386;23;20482;-90
2020/12/01 15:51:43;;;;;;;8.15;4.97;;;5.00;98.10;;;;;;6248979;23;19966;-90
2020/12/01 15:55:14;;;;;;;8.75;4.80;;;5.00;98.20;;;;;;6249434;23;20028;-90
2020/12/01 15:58:07;;;;;;;8.68;5.68;;;5.00;98.20;;;;;;6254376;23;20020;-90
2020/12/01 16:01:05;;;;;;;9.75;6.50;;;5.00;98.30;;;;;;6249414;23;20020;-91
2020/12/01 16:04:32;;;;;;;8.57;6.07;;;5.00;98.30;;;;;;6247434;23;20016;-90
2020/12/01 16:07:57;;;;;;;9.10;5.93;;;4.90;98.40;;;;;;6238481;23;20058;-94
2020/12/01 16:10:32;;;;;;;8.88;5.25;;;4.90;98.50;;;;;;6218923;23;20466;-89
2020/12/01 16:13:41;;;;;;;8.23;4.80;;;4.90;98.80;;;;;;6249981;23;20342;-89
2020/12/01 16:16:16;;;;;;;8.35;4.97;;;4.80;98.60;;;;;;6247659;23;20024;-89
2020/12/01 16:19:02;;;;;;;9.10;5.07;;;4.80;98.60;;;;;;6248258;23;20320;-88
2020/12/01 16:21:32;;;;;;;13.55;7.18;;;4.80;98.60;;;;;;6248092;23;20450;-90
2020/12/01 16:24:03;;;;;;;10.13;6.20;;;4.60;99.00;;;;;;6247718;23;20335;-88
2020/12/01 16:26:53;;;;;;;9.65;6.35;;;4.60;98.90;;;;;;6248489;23;20024;-88
2020/12/01 16:29:51;;;;;;;10.25;6.50;;;4.70;99.00;;;;;;6248302;23;20078;-88
2020/12/01 16:32:21;;;;;;;10.20;6.90;;;4.70;99.00;;;;;;6221218;23;20055;-88
2020/12/01 16:34:48;;;;;;;9.95;6.43;;;4.70;98.90;;;;;;6247911;23;20024;-85
2020/12/01 16:37:50;;;;;;;10.77;7.30;;;4.70;98.90;;;;;;6247986;23;20036;-89
2020/12/01 16:40:36;;;;;;;14.18;8.82;;;4.70;98.90;;;;;;6237876;23;20051;-84
2020/12/01 16:43:31;;;;;;;17.00;10.60;;;4.80;98.80;;;;;;6246614;23;20354;-83
2020/12/01 16:46:42;;;;;;;18.13;11.32;;;4.70;98.90;;;;;;6247329;23;20477;-82
2020/12/01 16:50:10;;;;;;;20.95;12.23;;;4.70;99.10;;;;;;6248432;23;20047;-82
2020/12/01 16:52:55;;;;;;;21.02;12.52;;;4.70;98.80;;;;;;6109222;23;20018;-82
2020/12/01 16:55:31;;;;;;;;;;;4.70;98.90;;;;;;6097385;23;20058;-81
2020/12/01 16:58:15;;;;;;;23.80;13.38;;;4.70;98.90;;;;;;6206765;23;19942;-84
2020/12/01 17:00:47;;;;;;;20.83;13.27;;;4.60;99.00;;;;;;6246618;23;20056;-83
2020/12/01 17:04:24;;;;;;;19.50;12.30;;;4.60;99.10;;;;;;6245854;23;20035;-81
2020/12/01 17:07:15;;;;;;;21.70;12.27;;;4.60;99.10;;;;;;6071330;23;20093;-82
2020/12/01 17:09:48;;;;;;;19.08;12.07;;;4.70;99.00;;;;;;6241655;23;20028;-81
2020/12/01 17:12:52;;;;;;;21.98;12.65;;;4.70;99.00;;;;;;6246765;23;20100;-84
2020/12/01 17:15:53;;;;;;;18.15;11.40;;;4.70;98.90;;;;;;6247799;23;20056;-81
2020/12/01 17:18:19;;;;;;;22.15;11.75;;;4.60;99.00;;;;;;6246595;23;20375;-80
2020/12/01 17:20:47;;;;;;;18.90;10.90;;;4.70;99.00;;;;;;6246800;23;20391;-80
2020/12/01 17:23:18;;;;;;;17.48;10.35;;;4.60;99.00;;;;;;6246662;23;20046;-82
2020/12/01 17:25:46;;;;;;;21.70;12.00;;;4.70;99.00;;;;;;6219306;23;20350;-83
2020/12/01 17:28:23;;;;;;;20.20;12.30;;;4.70;99.00;;;;;;6246759;23;20024;-81
2020/12/01 17:31:08;;;;;;;18.15;11.07;;;4.70;99.00;;;;;;6246850;23;20054;-83
2020/12/01 17:33:51;;;;;;;18.92;10.70;;;4.70;98.90;;;;;;6248371;23;20025;-84
2020/12/01 17:36:21;;;;;;;15.73;10.43;;;4.60;98.90;;;;;;6248682;23;20020;-82
2020/12/01 17:38:58;;;;;;;16.17;10.10;;;4.70;98.80;;;;;;6247957;23;20021;-82
2020/12/01 17:41:39;;;;;;;16.23;9.93;;;4.60;98.70;;;;;;6221399;23;20035;-85
2020/12/01 17:44:26;;;;;;;18.15;10.13;;;4.60;98.70;;;;;;6247769;23;20016;-81
2020/12/01 17:47:07;;;;;;;17.13;10.10;;;4.60;98.80;;;;;;6247049;23;20068;-83
2020/12/01 17:49:41;;;;;;;18.83;10.65;;;4.60;98.90;;;;;;6246130;23;20031;-81
2020/12/01 17:52:29;;;;;;;18.83;10.55;;;4.50;99.00;;;;;;6246658;23;20066;-83
2020/12/01 17:54:56;;;;;;;20.33;10.63;;;4.50;99.00;;;;;;6245476;23;20043;-84
2020/12/01 17:57:23;;;;;;;20.83;12.30;;;4.70;99.00;;;;;;6195354;23;20051;-85
2020/12/01 17:59:52;;;;;;;21.92;12.45;;;4.50;99.10;;;;;;6244465;23;20092;-90
2020/12/01 18:02:20;;;;;;;23.02;13.73;;;4.50;99.20;;;;;;6221407;23;20016;-85
2020/12/01 18:04:46;;;;;;;22.08;13.40;;;4.50;99.20;;;;;;6246109;23;20475;-85
2020/12/01 18:07:17;;;;;;;19.60;12.45;;;4.50;99.20;;;;;;6246083;23;20417;-84
2020/12/01 18:09:46;;;;;;;21.25;13.40;;;4.50;99.20;;;;;;6246646;23;20067;-86
2020/12/01 18:12:30;;;;;;;20.73;13.57;;;4.60;99.20;;;;;;6220603;23;20020;-85
2020/12/01 18:15:18;;;;;;;22.33;12.50;;;4.50;99.10;;;;;;6246813;23;20054;-85
2020/12/01 18:18:06;;;;;;;17.67;11.00;;;4.50;99.10;;;;;;6247010;23;20093;-87
2020/12/01 18:20:38;;;;;;;17.08;10.20;;;4.50;99.00;;;;;;6246835;23;20020;-87
2020/12/01 18:23:42;;;;;;;18.50;11.00;;;4.50;98.90;;;;;;6248128;22;20480;-87
2020/12/01 18:26:28;;;;;;;16.42;9.82;;;4.50;99.00;;;;;;6246906;23;20016;-86
2020/12/01 18:29:00;;;;;;;15.65;9.30;;;4.60;98.80;;;;;;6248930;23;20035;-89
2020/12/01 18:31:35;;;;;;;16.30;8.50;;;4.60;98.70;;;;;;6257327;23;20019;-89
2020/12/01 18:34:19;;;;;;;;;;;4.60;98.80;;;;;;6230707;23;20048;-88
2020/12/01 18:36:47;;;;;;;;;;;4.60;98.80;;;;;;6221493;23;19923;-88
2020/12/01 18:39:15;;;;;;;20.70;11.80;;;4.60;98.80;;;;;;6221038;23;19923;-90
2020/12/01 18:41:42;;;;;;;21.52;13.48;;;4.60;98.80;;;;;;6218431;23;20036;-89
2020/12/01 18:44:19;;;;;;;20.83;13.18;;;4.60;98.80;;;;;;6221405;23;20025;-89
2020/12/01 18:46:57;;;;;;;22.40;13.45;;;4.50;98.80;;;;;;6221017;23;20043;-90
2020/12/01 18:49:26;;;;;;;22.13;13.32;;;4.50;98.80;;;;;;6218538;23;20020;-88
2020/12/01 18:51:53;;;;;;;19.42;13.00;;;4.50;98.80;;;;;;6219023;23;20071;-89
2020/12/01 18:54:24;;;;;;;19.95;12.55;;;4.50;98.70;;;;;;6218841;23;20067;-88
2020/12/01 18:56:51;;;;;;;21.25;13.52;;;4.50;98.80;;;;;;6222229;23;20035;-89
2020/12/01 18:59:17;;;;;;;21.05;13.10;;;4.50;98.80;;;;;;6221870;23;20028;-89
2020/12/01 19:01:46;;;;;;;22.90;12.85;;;4.50;98.70;;;;;;6225480;23;20021;-87
2020/12/01 19:04:13;;;;;;;20.27;13.57;;;4.50;98.80;;;;;;6223509;23;20079;-88
2020/12/01 19:06:40;;;;;;;20.23;13.00;;;4.50;99.00;;;;;;6221061;23;20352;-87
2020/12/01 19:09:07;;;;;;;21.70;13.60;;;4.50;98.70;;;;;;6219860;23;20016;-87
2020/12/01 19:11:35;;;;;;;23.98;14.88;;;4.50;98.70;;;;;;6219037;23;20068;-88
2020/12/01 19:14:02;;;;;;;24.17;14.43;;;4.50;98.70;;;;;;6219269;23;20021;-88
2020/12/01 19:16:30;;;;;;;21.52;13.77;;;4.50;98.90;;;;;;6218993;23;20046;-87
2020/12/01 19:18:56;;;;;;;21.85;13.43;;;4.50;98.80;;;;;;6221210;23;20101;-88
2020/12/01 19:21:23;;;;;;;23.48;14.23;;;4.50;98.70;;;;;;6229244;23;20021;-89
2020/12/01 19:23:57;;;;;;;23.88;14.68;;;4.50;98.70;;;;;;6229173;23;20016;-90
2020/12/01 19:26:26;;;;;;;23.98;14.43;;;4.50;98.70;;;;;;6223789;23;20017;-87
2020/12/01 19:28:55;;;;;;;22.60;13.50;;;4.50;98.70;;;;;;6221812;23;20028;-89
2020/12/01 19:31:22;;;;;;;19.27;13.07;;;4.50;98.80;;;;;;6228158;23;20025;-88
2020/12/01 19:33:50;;;;;;;22.27;13.32;;;4.60;98.60;;;;;;6227682;23;20335;-89
2020/12/01 19:36:20;;;;;;;22.83;13.55;;;4.50;98.60;;;;;;6229418;23;20028;-91
2020/12/01 19:38:47;;;;;;;28.42;14.05;;;4.50;98.50;;;;;;6227711;23;20021;-89
2020/12/01 19:41:14;;;;;;;21.70;13.60;;;4.60;98.50;;;;;;6227090;23;20017;-89
2020/12/01 19:43:46;;;;;;;22.83;13.82;;;4.50;98.50;;;;;;6226563;23;20017;-90
2020/12/01 19:49:34;;;;;;;19.98;11.70;;;4.40;98.60;;;;;;6184109;22;20024;-91
2020/12/01 19:55:06;;;;;;;;;;;4.30;98.80;;;;;;6220324;23;20028;-88
2020/12/01 19:57:33;;;;;;;23.63;13.00;;;4.30;98.70;;;;;;6217884;23;19923;-86
2020/12/01 20:00:01;;;;;;;22.33;13.73;;;4.30;98.80;;;;;;6219516;23;20079;-85
2020/12/01 20:02:28;;;;;;;22.05;13.55;;;4.30;98.80;;;;;;6219755;23;20450;-87
2020/12/01 20:04:56;;;;;;;24.52;14.65;;;4.20;98.70;;;;;;6219190;23;20016;-85
2020/12/01 20:07:24;;;;;;;20.77;13.77;;;4.20;98.90;;;;;;6220038;23;20036;-87
2020/12/01 20:09:51;;;;;;;22.90;13.02;;;4.30;98.90;;;;;;6196330;23;20017;-87
2020/12/01 20:12:18;;;;;;;20.58;12.07;;;4.30;98.70;;;;;;6223108;23;20028;-88
2020/12/01 20:14:45;;;;;;;19.15;11.63;;;4.20;98.70;;;;;;6220213;23;20025;-87
2020/12/01 20:20:25;;;;;;;19.33;11.45;;;4.10;99.00;;;;;;6244276;22;20028;-87
2020/12/01 20:22:52;;;;;;;18.45;11.25;;;4.10;98.90;;;;;;6252112;23;20095;-88
2020/12/01 20:25:30;;;;;;;26.98;15.23;;;4.20;98.90;;;;;;6268702;23;20027;-86
2020/12/01 20:27:59;;;;;;;19.92;12.23;;;4.20;98.90;;;;;;6249793;23;20044;-86
2020/12/01 20:30:30;;;;;;;19.73;12.27;;;4.10;98.90;;;;;;6249567;23;20055;-89
2020/12/01 20:32:58;;;;;;;18.88;11.63;;;4.20;98.90;;;;;;6248268;23;20012;-87
2020/12/01 20:36:33;;;;;;;20.90;13.05;;;4.20;99.10;;;;;;6248498;23;20071;-88
2020/12/01 20:44:30;;;;;;;20.10;11.50;;;4.20;98.80;;;;;;6239557;22;20028;-89
2020/12/01 20:50:09;;;;;;;16.00;10.63;;;4.20;98.80;;;;;;6234317;22;20120;-90
2020/12/01 20:58:56;;;;;;;16.20;10.23;;;4.30;98.60;;;;;;6192753;22;20012;-87
2020/12/01 21:01:24;;;;;;;16.83;10.38;;;4.30;98.70;;;;;;6224100;23;20473;-90
2020/12/01 21:03:56;;;;;;;18.92;11.27;;;4.30;98.60;;;;;;6252436;23;20047;-88
2020/12/01 21:06:23;;;;;;;19.63;10.98;;;4.20;98.70;;;;;;6226036;23;20028;-88
2020/12/01 21:14:53;;;;;;;18.90;10.82;;;4.20;98.70;;;;;;6222891;22;20016;-86
2020/12/01 21:17:25;;;;;;;18.08;11.48;;;4.20;98.80;;;;;;6251714;23;20020;-88
2020/12/01 21:19:58;;;;;;;20.83;12.00;;;4.30;98.80;;;;;;6251698;23;20016;-90
2020/12/01 21:22:37;;;;;;;20.33;11.57;;;4.30;98.70;;;;;;6253595;23;20036;-89
2020/12/01 21:28:03;;;;;;;22.17;12.00;;;4.20;98.90;;;;;;6239242;22;20043;-84
2020/12/01 21:30:41;;;;;;;21.63;11.82;;;4.20;99.00;;;;;;6250602;23;20043;-84
2020/12/01 21:33:22;;;;;;;19.60;12.20;;;4.10;99.20;;;;;;6251697;23;20022;-85
2020/12/01 21:35:53;;;;;;;21.38;11.98;;;4.10;99.20;;;;;;6224031;23;20027;-85
2020/12/01 21:38:21;;;;;;;24.50;12.32;;;4.20;99.10;;;;;;6250335;23;20382;-82
2020/12/01 21:40:48;;;;;;;16.35;10.60;;;4.10;99.10;;;;;;6252960;22;20020;-84
2020/12/01 21:43:37;;;;;;;20.00;11.40;;;4.10;99.00;;;;;;6227452;23;20016;-84
2020/12/01 21:46:05;;;;;;;17.90;11.35;;;4.10;99.10;;;;;;6256858;22;20027;-83
2020/12/01 21:48:33;;;;;;;19.38;11.43;;;4.10;99.00;;;;;;6250906;23;20055;-83
2020/12/01 21:51:22;;;;;;;18.90;11.13;;;4.10;98.90;;;;;;6247909;23;20487;-84
2020/12/01 21:54:12;;;;;;;21.25;12.48;;;4.20;99.00;;;;;;6244059;22;20036;-84
2020/12/01 21:56:48;;;;;;;22.98;13.48;;;4.20;99.00;;;;;;6248053;23;20047;-86
2020/12/01 21:59:57;;;;;;;22.42;12.82;;;4.10;99.00;;;;;;6246493;23;20031;-85
2020/12/01 22:03:01;;;;;;;24.77;13.50;;;4.20;99.00;;;;;;6250483;23;20047;-84
2020/12/01 22:06:16;;;;;;;23.13;13.98;;;4.20;98.80;;;;;;6247018;23;20048;-86
2020/12/01 22:08:53;;;;;;;20.45;12.93;;;4.20;98.80;;;;;;6195174;23;20407;-85
2020/12/01 22:11:28;;;;;;;23.95;12.98;;;4.20;99.00;;;;;;6247888;23;20022;-83
2020/12/01 22:14:10;;;;;;;20.58;12.68;;;4.20;98.80;;;;;;6246644;23;20450;-85
2020/12/01 22:16:40;;;;;;;19.98;13.65;;;4.20;98.80;;;;;;6248214;23;20056;-85
2020/12/01 22:19:15;;;;;;;25.27;14.20;;;4.20;98.80;;;;;;6252395;23;20035;-84
2020/12/01 22:22:24;;;;;;;23.75;13.73;;;4.10;98.90;;;;;;6263458;23;20004;-84
2020/12/01 22:25:29;;;;;;;24.42;14.20;;;4.20;98.90;;;;;;6227359;23;20020;-83
2020/12/01 22:28:44;;;;;;;25.13;14.45;;;4.10;98.90;;;;;;6250304;23;20481;-82
2020/12/01 22:31:57;;;;;;;23.10;13.98;;;4.10;98.90;;;;;;6222111;23;20089;-83
2020/12/01 22:35:04;;;;;;;23.20;14.45;;;4.20;98.90;;;;;;6197792;23;20012;-85
2020/12/01 22:37:32;;;;;;;24.60;14.15;;;4.10;98.90;;;;;;6247431;23;20059;-84
2020/12/01 22:39:59;;;;;;;24.88;13.88;;;4.10;98.80;;;;;;6246384;23;20055;-84
2020/12/01 22:42:32;;;;;;;23.65;13.57;;;4.10;98.90;;;;;;6246196;23;20059;-84
2020/12/01 22:45:30;;;;;;;22.80;12.90;;;4.10;98.80;;;;;;6219339;23;20017;-85
2020/12/01 22:48:24;;;;;;;23.65;13.05;;;4.10;98.90;;;;;;6187608;23;20472;-85
2020/12/01 22:51:16;;;;;;;21.75;12.85;;;4.20;98.80;;;;;;6246815;23;20485;-84
2020/12/01 22:54:41;;;;;;;21.20;12.98;;;4.10;98.80;;;;;;6245522;23;20078;-87
2020/12/01 22:57:52;;;;;;;20.90;13.10;;;4.10;98.80;;;;;;6245740;23;20028;-86
2020/12/01 23:00:32;;;;;;;22.13;12.48;;;4.10;98.80;;;;;;6246252;23;20070;-86
2020/12/01 23:03:06;;;;;;;22.67;12.63;;;4.10;98.80;;;;;;6245945;23;20027;-86
2020/12/01 23:05:34;;;;;;;20.50;12.35;;;4.00;98.70;;;;;;6218915;23;20032;-85
2020/12/01 23:08:22;;;;;;;24.13;13.38;;;4.10;98.80;;;;;;6245786;23;20434;-85
2020/12/01 23:10:57;;;;;;;22.23;12.80;;;4.10;98.80;;;;;;6247331;23;20054;-84
2020/12/01 23:13:31;;;;;;;33.55;17.13;;;4.10;98.70;;;;;;6248505;23;20016;-84
2020/12/01 23:16:03;;;;;;;24.42;14.20;;;4.10;98.70;;;;;;6249283;23;20070;-82
2020/12/01 23:18:32;;;;;;;23.52;14.50;;;4.10;98.70;;;;;;6248789;23;20051;-85
2020/12/01 23:21:01;;;;;;;24.73;14.27;;;4.10;98.70;;;;;;6247949;23;20035;-83
2020/12/01 23:23:28;;;;;;;22.98;12.80;;;4.10;98.60;;;;;;6247468;23;20383;-84
2020/12/01 23:26:06;;;;;;;23.67;13.45;;;4.10;98.60;;;;;;6255954;23;20019;-83
2020/12/01 23:28:34;;;;;;;23.92;14.13;;;4.10;98.60;;;;;;6254061;23;20035;-83
2020/12/01 23:31:02;;;;;;;23.80;13.70;;;4.10;98.70;;;;;;6225864;23;20020;-83
2020/12/01 23:33:34;;;;;;;29.33;16.48;;;4.10;98.60;;;;;;6253142;22;20040;-84
2020/12/01 23:36:06;;;;;;;24.40;13.63;;;4.10;98.60;;;;;;6252424;23;20024;-84
2020/12/01 23:38:36;;;;;;;20.17;11.85;;;4.10;98.40;;;;;;6226322;23;20060;-83
2020/12/01 23:41:23;;;;;;;19.20;11.52;;;4.10;98.50;;;;;;6250909;23;20028;-83
2020/12/01 23:44:22;;;;;;;18.10;10.18;;;4.10;98.40;;;;;;6251049;23;20024;-82
2020/12/01 23:46:55;;;;;;;17.83;9.90;;;4.10;98.50;;;;;;6253683;23;20020;-85
2020/12/01 23:49:30;;;;;;;17.23;10.35;;;4.10;98.50;;;;;;6254916;23;20020;-85
2020/12/01 23:52:03;;;;;;;17.45;10.48;;;4.10;98.50;;;;;;6251372;23;20048;-83
2020/12/01 23:54:30;;;;;;;16.33;9.50;;;4.10;98.50;;;;;;6250605;23;20028;-84
2020/12/01 23:57:02;;;;;;;16.35;9.65;;;4.10;98.50;;;;;;6254440;23;20046;-82
2020/12/01 23:59:29;;;;;;;17.33;10.43;;;4.10;98.50;;;;;;6254132;23;20035;-84
